createdAt,value
2023-04-02T00:02:22.881Z,99.90
2023-04-02T00:07:33.488Z,99.90
2023-04-02T00:12:35.656Z,99.90
2023-04-02T00:17:37.843Z,99.90
2023-04-02T00:22:44.740Z,99.90
2023-04-02T00:27:47.143Z,99.90
2023-04-02T00:32:49.605Z,99.90
2023-04-02T00:37:51.952Z,99.90
2023-04-02T00:42:56.418Z,99.90
2023-04-02T00:48:00.862Z,99.90
2023-04-02T00:53:15.628Z,99.90
2023-04-02T00:58:27.875Z,99.90
2023-04-02T01:03:35.633Z,99.90
2023-04-02T01:09:15.293Z,99.90
2023-04-02T01:15:02.091Z,99.90
2023-04-02T01:20:25.712Z,99.90
2023-04-02T01:25:43.279Z,99.90
2023-04-02T01:30:53.118Z,99.90
2023-04-02T01:36:19.546Z,99.90
2023-04-02T01:41:48.232Z,99.90
2023-04-02T01:46:50.575Z,99.90
2023-04-02T01:51:56.923Z,99.90
2023-04-02T01:57:02.008Z,99.90
2023-04-02T02:02:13.605Z,99.90
2023-04-02T02:07:20.979Z,99.90
2023-04-02T02:12:27.672Z,99.90
2023-04-02T02:17:34.691Z,99.90
2023-04-02T02:22:40.792Z,99.90
2023-04-02T02:27:54.098Z,99.90
2023-04-02T02:33:19.073Z,99.90
2023-04-02T02:38:30.820Z,99.90
2023-04-02T02:43:40.013Z,99.90
2023-04-02T02:48:44.284Z,99.90
2023-04-02T02:53:55.872Z,99.90
2023-04-02T02:59:00.433Z,99.90
2023-04-02T03:04:07.852Z,99.90
2023-04-02T03:09:23.099Z,99.90
2023-04-02T03:14:31.087Z,99.90
2023-04-02T03:19:41.019Z,99.90
2023-04-02T03:24:56.923Z,99.90
2023-04-02T03:30:17.802Z,99.90
2023-04-02T03:35:36.350Z,99.90
2023-04-02T03:41:02.050Z,99.90
2023-04-02T03:46:28.557Z,99.90
2023-04-02T03:51:41.658Z,99.90
2023-04-02T03:56:47.669Z,99.90
2023-04-02T04:02:16.426Z,99.90
2023-04-02T04:07:34.146Z,99.90
2023-04-02T04:12:40.990Z,99.90
2023-04-02T04:18:04.523Z,99.90
2023-04-02T04:23:20.298Z,99.90
2023-04-02T04:28:38.685Z,99.90
2023-04-02T04:33:46.164Z,99.90
2023-04-02T04:38:59.736Z,99.90
2023-04-02T04:44:11.346Z,99.90
2023-04-02T04:49:47.465Z,99.90
2023-04-02T04:54:52.118Z,99.90
2023-04-02T05:00:27.621Z,99.90
2023-04-02T05:05:34.086Z,99.90
2023-04-02T05:11:05.581Z,99.90
2023-04-02T05:16:15.297Z,99.90
2023-04-02T05:21:21.296Z,99.90
2023-04-02T05:26:34.128Z,99.90
2023-04-02T05:31:45.098Z,99.90
2023-04-02T05:36:48.991Z,99.90
2023-04-02T05:42:03.721Z,99.90
2023-04-02T05:47:26.210Z,99.90
2023-04-02T05:52:34.381Z,99.90
2023-04-02T05:57:48.355Z,99.90
2023-04-02T06:03:07.574Z,99.90
2023-04-02T06:08:26.722Z,99.90
2023-04-02T06:13:29.455Z,99.90
2023-04-02T06:18:37.025Z,99.90
2023-04-02T06:23:46.843Z,99.90
2023-04-02T06:28:58.608Z,99.90
2023-04-02T06:34:04.846Z,99.90
2023-04-02T06:39:15.836Z,99.90
2023-04-02T06:44:23.017Z,99.90
2023-04-02T06:50:23.642Z,99.90
2023-04-02T06:55:45.389Z,99.90
2023-04-02T07:00:50.325Z,99.90
2023-04-02T07:06:03.530Z,99.90
2023-04-02T07:11:07.941Z,99.90
2023-04-02T07:16:16.944Z,99.90
2023-04-02T07:21:20.249Z,99.90
2023-04-02T07:26:28.092Z,99.90
2023-04-02T07:31:30.615Z,99.90
2023-04-02T07:36:32.831Z,99.90
2023-04-02T07:41:51.227Z,99.90
2023-04-02T07:46:53.610Z,99.90
2023-04-02T07:51:55.844Z,99.90
2023-04-02T07:56:58.089Z,99.90
2023-04-02T08:02:00.720Z,99.90
2023-04-02T08:07:03.202Z,99.90
2023-04-02T08:12:06.033Z,99.90
2023-04-02T08:17:08.227Z,99.90
2023-04-02T08:22:11.128Z,99.90
2023-04-02T08:27:15.300Z,99.90
2023-04-02T08:32:17.532Z,99.90
2023-04-02T08:37:19.757Z,99.90
2023-04-02T08:42:25.131Z,99.90
2023-04-02T08:47:30.633Z,99.90
2023-04-02T08:52:36.939Z,99.90
2023-04-02T08:57:47.467Z,99.90
2023-04-02T09:02:56.481Z,99.90
2023-04-02T09:08:01.904Z,99.90
2023-04-02T09:13:13.782Z,99.90
2023-04-02T09:18:20.220Z,99.90
2023-04-02T09:23:26.204Z,99.90
2023-04-02T09:28:28.461Z,99.90
2023-04-02T09:33:45.588Z,99.90
2023-04-02T09:39:06.740Z,96.80
2023-04-02T09:44:22.991Z,90.30
2023-04-02T09:49:27.660Z,84.40
2023-04-02T09:54:29.826Z,59.40
2023-04-02T09:59:31.992Z,52.00
2023-04-02T10:04:45.125Z,47.50
2023-04-02T10:10:01.854Z,50.60
2023-04-02T10:15:06.288Z,51.40
2023-04-02T10:20:22.556Z,49.30
2023-04-02T10:25:29.870Z,52.20
2023-04-02T10:31:07.937Z,52.60
2023-04-02T10:36:42.455Z,47.80
2023-04-02T10:41:53.680Z,49.70
2023-04-02T10:47:27.492Z,48.60
2023-04-02T10:52:31.277Z,47.50
2023-04-02T10:57:41.840Z,49.00
2023-04-02T11:03:02.081Z,49.20
2023-04-02T11:08:11.284Z,56.90
2023-04-02T11:13:17.650Z,58.90
2023-04-02T11:18:37.749Z,49.10
2023-04-02T11:23:56.472Z,40.00
2023-04-02T11:29:07.444Z,39.00
2023-04-02T11:34:34.262Z,39.60
2023-04-02T11:39:53.563Z,37.80
2023-04-02T11:44:59.225Z,35.50
2023-04-02T11:50:04.538Z,33.50
2023-04-02T11:55:22.851Z,35.30
2023-04-02T12:01:02.449Z,39.10
2023-04-02T12:06:25.957Z,40.20
2023-04-02T12:11:37.809Z,37.40
2023-04-02T12:16:40.296Z,39.80
2023-04-02T12:21:47.565Z,37.90
2023-04-02T12:27:06.731Z,36.90
2023-04-02T12:32:30.131Z,36.10
2023-04-02T12:37:32.935Z,36.10
2023-04-02T12:42:37.244Z,35.50
2023-04-02T12:47:45.242Z,36.70
2023-04-02T12:52:53.529Z,36.20
2023-04-02T12:58:00.191Z,36.50
2023-04-02T13:03:22.995Z,37.70
2023-04-02T13:08:28.015Z,38.90
2023-04-02T13:13:35.124Z,38.60
2023-04-02T13:18:38.937Z,37.80
2023-04-02T13:23:41.705Z,37.40
2023-04-02T13:28:59.902Z,38.00
2023-04-02T13:34:02.404Z,37.20
2023-04-02T13:39:05.124Z,38.00
2023-04-02T13:44:15.007Z,36.20
2023-04-02T13:49:17.527Z,35.00
2023-04-02T13:54:38.511Z,35.50
2023-04-02T13:59:40.923Z,35.70
2023-04-02T14:04:50.166Z,37.10
2023-04-02T14:10:10.015Z,36.70
2023-04-02T14:15:33.421Z,34.40
2023-04-02T14:21:03.910Z,34.10
2023-04-02T14:26:13.754Z,34.30
2023-04-02T14:31:41.432Z,33.30
2023-04-02T14:36:56.598Z,32.80
2023-04-02T14:42:10.248Z,31.20
2023-04-02T14:47:28.512Z,30.00
2023-04-02T14:52:34.040Z,30.00
2023-04-02T14:57:49.067Z,29.70
2023-04-02T15:03:15.208Z,29.40
2023-04-02T15:08:48.307Z,29.80
2023-04-02T15:14:00.149Z,29.50
2023-04-02T15:19:06.803Z,29.30
2023-04-02T15:24:31.495Z,28.40
2023-04-02T15:30:15.083Z,27.90
2023-04-02T15:35:27.369Z,27.50
2023-04-02T15:40:57.497Z,26.50
2023-04-02T15:46:56.166Z,27.30
2023-04-02T15:51:58.431Z,26.90
2023-04-02T15:57:18.229Z,26.80
2023-04-02T16:02:43.635Z,26.70
2023-04-02T16:08:11.063Z,27.10
2023-04-02T16:13:19.485Z,26.80
2023-04-02T16:18:33.526Z,26.90
2023-04-02T16:23:37.971Z,27.70
2023-04-02T16:28:49.091Z,27.50
2023-04-02T16:34:08.318Z,28.80
2023-04-02T16:39:41.540Z,28.70
2023-04-02T16:45:14.968Z,27.90
2023-04-02T16:50:33.740Z,28.10
2023-04-02T16:56:17.632Z,28.30
2023-04-02T17:01:45.560Z,28.50
2023-04-02T17:07:12.313Z,30.00
2023-04-02T17:12:39.252Z,31.50
2023-04-02T17:17:41.844Z,32.80
2023-04-02T17:22:44.346Z,35.40
2023-04-02T17:27:49.551Z,34.80
2023-04-02T17:32:54.855Z,35.30
2023-04-02T17:38:14.822Z,36.50
2023-04-02T17:43:32.135Z,40.80
2023-04-02T17:49:26.444Z,44.70
2023-04-02T17:55:06.664Z,48.00
2023-04-02T18:00:17.874Z,50.20
2023-04-02T18:05:38.744Z,52.00
2023-04-02T18:11:10.665Z,53.80
2023-04-02T18:16:22.043Z,55.00
2023-04-02T18:21:43.605Z,56.80
2023-04-02T18:26:57.970Z,59.40
2023-04-02T18:32:41.962Z,67.20
2023-04-02T18:37:50.128Z,78.80
2023-04-02T18:43:19.094Z,93.40
2023-04-02T18:48:40.980Z,99.90
2023-04-02T18:53:44.543Z,99.90
2023-04-02T18:58:58.466Z,99.90
2023-04-02T19:04:12.977Z,99.90
2023-04-02T19:09:23.461Z,99.90
2023-04-02T19:14:26.133Z,99.90
2023-04-02T19:19:40.232Z,99.90
2023-04-02T19:25:08.992Z,99.90
2023-04-02T19:30:29.863Z,99.90
2023-04-02T19:35:54.149Z,99.90
2023-04-02T19:41:08.585Z,99.90
2023-04-02T19:46:11.080Z,99.90
2023-04-02T19:51:13.576Z,99.90
2023-04-02T19:56:15.958Z,99.90
2023-04-02T20:01:18.325Z,99.90
2023-04-02T20:06:21.418Z,99.90
2023-04-02T20:11:24.251Z,99.90
2023-04-02T20:16:26.520Z,99.90
2023-04-02T20:21:29.673Z,99.90
2023-04-02T20:26:31.893Z,99.90
2023-04-02T20:31:34.231Z,99.90
2023-04-02T20:36:36.656Z,99.90
2023-04-02T20:42:17.583Z,99.90
2023-04-02T20:47:19.876Z,99.90
2023-04-02T20:52:22.235Z,99.90
2023-04-02T20:57:26.335Z,99.90
2023-04-02T21:02:28.624Z,99.90
2023-04-02T21:07:31.057Z,99.90
2023-04-02T21:12:33.238Z,99.90
2023-04-02T21:17:35.697Z,99.90
2023-04-02T21:22:37.946Z,99.90
2023-04-02T21:27:40.120Z,99.90
2023-04-02T21:32:42.551Z,99.90
2023-04-02T21:37:45.376Z,99.90
2023-04-02T21:42:47.644Z,99.90
2023-04-02T21:47:49.884Z,99.90
2023-04-02T21:52:52.730Z,99.90
2023-04-02T21:57:55.186Z,99.90
2023-04-02T22:02:57.438Z,99.90
2023-04-02T22:07:59.653Z,99.90
2023-04-02T22:13:01.821Z,99.90
2023-04-02T22:18:04.141Z,99.90
2023-04-02T22:23:06.382Z,99.90
2023-04-02T22:28:08.605Z,99.90
2023-04-02T22:33:11.184Z,99.90
2023-04-02T22:38:13.350Z,99.90
2023-04-02T22:43:16.931Z,99.90
2023-04-02T22:48:19.316Z,99.90
2023-04-02T22:53:22.336Z,99.90
2023-04-02T22:58:26.717Z,99.90
2023-04-02T23:03:29.118Z,99.90
2023-04-02T23:08:31.735Z,99.90
2023-04-02T23:13:35.117Z,99.90
2023-04-02T23:18:57.023Z,99.90
2023-04-02T23:23:59.574Z,99.90
2023-04-02T23:29:02.556Z,99.90
2023-04-02T23:34:04.752Z,99.90
2023-04-02T23:39:11.519Z,99.90
2023-04-02T23:44:13.824Z,99.90
2023-04-02T23:49:15.989Z,99.90
2023-04-02T23:54:18.223Z,99.90
2023-04-02T23:59:20.726Z,99.90
